Biddulph, United Kingdom
Current Conditions -  °F | °C
As of 10:20 AM on Saturday 20 Dec 2014 (Local Time) from EGCC Reporting Station
Rain Showers Rain Showers  
Wind Chill: 37°   Ceiling: 2500
Heat Index: 45°   Visibility: 6mi
Dew Point: 39°   Wind: 18mph
Humidity: 81%   Direction: 290°WNW
Pressure: 30.21"   Gusts: NA
Location:  53.12°N, 2.18°W
Report Text: EGCC 201020Z 29016KT 270V330 9000 -SHRA FEW015 BKN025 07/04 Q1023 RESHRA TEMPO SHRA
Loading
Personal Weather Stations






























Interactive Weather Map New forecast layout! Learn more

10-Day Weather Forecast

Advertisements
Track Severe Weather on mobile